Time;durP1;ratioP1;P1;durP2;ratioP2;P2;SDS_P1;SDS_P2;PMS_P1;PMS_P2;Temp;Humidity;BMP_temperature;BMP_pressure;BME280_temperature;BME280_humidity;BME280_pressure;Samples;Min_cycle;Max_cycle;Signal;HPM_P1;HPM_P2
2023/07/18 00:00:13;;;;;;;8.48;3.15;;;13.60;99.90;;;;;;5129694;27;20045;-63
2023/07/18 00:02:39;;;;;;;6.85;2.88;;;13.60;99.90;;;;;;5120243;27;20041;-62
2023/07/18 00:05:07;;;;;;;7.65;3.13;;;13.60;99.90;;;;;;5132834;27;20037;-62
2023/07/18 00:07:34;;;;;;;5.32;3.25;;;13.60;99.90;;;;;;5121679;27;20402;-62
2023/07/18 00:10:00;;;;;;;5.93;3.17;;;13.50;99.90;;;;;;5140727;27;20446;-62
2023/07/18 00:12:25;;;;;;;6.53;3.08;;;13.50;99.90;;;;;;5115307;27;20039;-62
2023/07/18 00:14:52;;;;;;;6.85;3.25;;;13.50;99.90;;;;;;5121342;27;20039;-63
2023/07/18 00:17:17;;;;;;;6.80;3.60;;;13.50;99.90;;;;;;5120634;27;20117;-62
2023/07/18 00:19:43;;;;;;;5.68;3.00;;;13.50;99.90;;;;;;5146072;27;20467;-63
2023/07/18 00:22:09;;;;;;;7.05;3.30;;;13.50;99.90;;;;;;5124592;27;20043;-62
2023/07/18 00:24:34;;;;;;;7.38;3.17;;;13.50;99.90;;;;;;5127131;27;20122;-62
2023/07/18 00:27:00;;;;;;;8.75;3.70;;;13.50;99.90;;;;;;5123768;27;20085;-63
2023/07/18 00:29:26;;;;;;;7.75;3.45;;;13.40;99.90;;;;;;5146738;27;20046;-62
2023/07/18 00:31:52;;;;;;;7.63;3.40;;;13.40;99.90;;;;;;5121276;27;20031;-62
2023/07/18 00:34:17;;;;;;;4.65;3.08;;;13.40;99.90;;;;;;5151801;27;20833;-62
2023/07/18 00:36:44;;;;;;;8.27;3.30;;;13.40;99.90;;;;;;5149520;27;20031;-62
2023/07/18 00:39:10;;;;;;;7.07;3.25;;;13.30;99.90;;;;;;5103285;27;20073;-62
2023/07/18 00:41:36;;;;;;;6.47;3.13;;;13.30;99.90;;;;;;5122384;27;20047;-62
2023/07/18 00:44:01;;;;;;;10.60;3.50;;;13.30;99.90;;;;;;5122889;27;20042;-62
2023/07/18 00:46:28;;;;;;;8.85;3.42;;;13.20;99.90;;;;;;5122574;27;20047;-62
2023/07/18 00:48:54;;;;;;;6.55;3.22;;;13.20;99.90;;;;;;5123774;27;20084;-62
2023/07/18 00:51:21;;;;;;;6.97;3.15;;;13.20;99.90;;;;;;5121146;27;20331;-63
2023/07/18 00:53:47;;;;;;;7.03;3.45;;;13.10;99.90;;;;;;5108093;27;20037;-62
2023/07/18 00:56:13;;;;;;;8.50;3.60;;;13.10;99.90;;;;;;5123508;27;20043;-61
2023/07/18 00:58:39;;;;;;;5.53;3.45;;;13.10;99.90;;;;;;5120890;27;20057;-63
2023/07/18 01:01:05;;;;;;;7.55;3.72;;;13.10;99.90;;;;;;5117028;27;20494;-63
2023/07/18 01:03:31;;;;;;;7.57;3.05;;;13.10;99.90;;;;;;5140202;27;20110;-62
2023/07/18 01:05:57;;;;;;;7.25;3.70;;;13.10;99.90;;;;;;5121407;27;20081;-63
2023/07/18 01:08:22;;;;;;;7.72;3.65;;;13.10;99.90;;;;;;5120360;27;20038;-62
2023/07/18 01:10:48;;;;;;;7.47;3.40;;;13.10;99.90;;;;;;5126751;27;20050;-62
2023/07/18 01:13:13;;;;;;;8.35;4.00;;;13.10;99.90;;;;;;5141607;27;20057;-62
2023/07/18 01:15:39;;;;;;;9.05;4.07;;;13.10;99.90;;;;;;5133053;27;20483;-62
2023/07/18 01:18:08;;;;;;;8.38;4.00;;;13.10;99.90;;;;;;5124673;27;20054;-61
2023/07/18 01:20:36;;;;;;;6.78;3.63;;;13.00;99.90;;;;;;5112800;27;20122;-62
2023/07/18 01:23:05;;;;;;;11.95;3.65;;;13.00;99.90;;;;;;5126930;27;20122;-62
2023/07/18 01:25:31;;;;;;;7.82;3.35;;;13.00;99.90;;;;;;5131131;27;20473;-62
2023/07/18 01:27:59;;;;;;;6.43;3.40;;;13.00;99.90;;;;;;5119984;28;20477;-62
2023/07/18 01:30:26;;;;;;;8.93;4.15;;;13.00;99.90;;;;;;5127391;27;20034;-62
2023/07/18 01:32:52;;;;;;;6.50;3.72;;;13.00;99.90;;;;;;5140420;27;20074;-61
2023/07/18 01:35:20;;;;;;;4.97;3.13;;;12.90;99.90;;;;;;5112771;27;20462;-62
2023/07/18 01:37:46;;;;;;;7.28;3.33;;;12.90;99.90;;;;;;5121662;27;20129;-62
2023/07/18 01:40:14;;;;;;;8.32;3.95;;;12.90;99.90;;;;;;5129606;27;20039;-62
2023/07/18 01:42:40;;;;;;;5.55;3.35;;;12.90;99.90;;;;;;5123439;27;20122;-63
2023/07/18 01:45:06;;;;;;;6.57;3.35;;;12.90;99.90;;;;;;5130691;27;20099;-62
2023/07/18 01:47:32;;;;;;;8.63;3.42;;;12.90;99.90;;;;;;5116924;27;20122;-63
2023/07/18 01:50:04;;;;;;;6.55;3.53;;;12.90;99.90;;;;;;5138354;27;20133;-62
2023/07/18 01:52:34;;;;;;;4.88;3.28;;;12.90;99.90;;;;;;5124829;27;20050;-62
2023/07/18 01:55:03;;;;;;;6.88;3.20;;;12.90;99.90;;;;;;5117839;27;20043;-62
2023/07/18 01:57:42;;;;;;;7.30;3.40;;;12.90;99.90;;;;;;5134166;27;20035;-62
2023/07/18 02:00:11;;;;;;;9.02;3.53;;;12.90;99.90;;;;;;5117633;27;20044;-63
2023/07/18 02:02:40;;;;;;;8.73;3.70;;;12.90;99.90;;;;;;5132641;27;20046;-62
2023/07/18 02:05:06;;;;;;;9.00;3.63;;;12.90;99.90;;;;;;5103088;28;20054;-62
2023/07/18 02:07:32;;;;;;;5.68;3.63;;;12.90;99.90;;;;;;5121860;27;20026;-62
2023/07/18 02:10:00;;;;;;;6.18;3.35;;;12.90;99.90;;;;;;5096637;27;20045;-62
2023/07/18 02:12:26;;;;;;;8.75;3.42;;;12.90;99.90;;;;;;5131146;27;20400;-62
2023/07/18 02:14:51;;;;;;;9.85;4.18;;;12.90;99.90;;;;;;5130376;27;20034;-63
2023/07/18 02:17:17;;;;;;;10.02;3.50;;;12.80;99.90;;;;;;5125531;27;20043;-62
2023/07/18 02:19:43;;;;;;;10.10;4.32;;;12.90;99.90;;;;;;5132599;27;20035;-61
2023/07/18 02:22:09;;;;;;;7.75;3.60;;;12.80;99.90;;;;;;5121204;27;20043;-62
2023/07/18 02:24:34;;;;;;;6.90;3.97;;;12.80;99.90;;;;;;5135262;27;20483;-62
2023/07/18 02:27:00;;;;;;;8.30;3.90;;;12.80;99.90;;;;;;5130782;27;20042;-62
2023/07/18 02:29:26;;;;;;;5.22;3.40;;;12.80;99.90;;;;;;5129946;27;20043;-63
2023/07/18 02:31:53;;;;;;;6.45;3.33;;;12.80;99.90;;;;;;5127088;27;20042;-63
2023/07/18 02:34:19;;;;;;;6.65;3.53;;;12.70;99.90;;;;;;5130249;27;20402;-62
2023/07/18 02:36:45;;;;;;;7.28;3.92;;;12.70;99.90;;;;;;5152595;27;20115;-62
2023/07/18 02:39:11;;;;;;;8.50;3.75;;;12.70;99.90;;;;;;5125528;27;20149;-61
2023/07/18 02:41:37;;;;;;;9.32;3.55;;;12.70;99.90;;;;;;5123374;27;20542;-62
2023/07/18 02:44:04;;;;;;;7.35;3.70;;;12.70;99.90;;;;;;5117061;27;20039;-62
2023/07/18 02:46:30;;;;;;;8.13;3.92;;;12.70;99.90;;;;;;5131919;27;20042;-62
2023/07/18 02:48:56;;;;;;;7.20;3.38;;;12.70;99.90;;;;;;5131118;27;20031;-62
2023/07/18 02:51:21;;;;;;;7.30;3.30;;;12.70;99.90;;;;;;5122450;27;20069;-62
2023/07/18 02:53:49;;;;;;;8.32;3.20;;;12.70;99.90;;;;;;5123885;27;20096;-62
2023/07/18 02:56:15;;;;;;;9.43;3.75;;;12.70;99.90;;;;;;5101469;27;20435;-62
2023/07/18 02:58:41;;;;;;;7.20;3.50;;;12.60;99.90;;;;;;5119262;27;20064;-63
2023/07/18 03:01:07;;;;;;;7.35;3.45;;;12.60;99.90;;;;;;5125780;27;20117;-61
2023/07/18 03:03:34;;;;;;;6.97;3.30;;;12.60;99.90;;;;;;5106988;27;20437;-62
2023/07/18 03:06:00;;;;;;;6.03;3.63;;;12.60;99.90;;;;;;5129824;27;20102;-62
2023/07/18 03:08:26;;;;;;;6.35;3.70;;;12.60;99.90;;;;;;5136340;27;20621;-62
2023/07/18 03:10:52;;;;;;;10.85;3.83;;;12.60;99.90;;;;;;5149674;27;20035;-62
2023/07/18 03:13:17;;;;;;;9.63;3.80;;;12.60;99.90;;;;;;5146740;27;20516;-62
2023/07/18 03:15:43;;;;;;;11.55;3.90;;;12.60;99.90;;;;;;5115466;27;20039;-63
2023/07/18 03:18:09;;;;;;;9.77;4.15;;;12.60;99.90;;;;;;5145074;27;20393;-62
2023/07/18 03:20:35;;;;;;;5.97;3.40;;;12.60;99.90;;;;;;5120742;27;20142;-63
2023/07/18 03:23:04;;;;;;;9.82;3.63;;;12.60;99.90;;;;;;5111242;27;20133;-62
2023/07/18 03:25:30;;;;;;;9.75;3.30;;;12.60;99.90;;;;;;5131852;27;20065;-63
2023/07/18 03:27:56;;;;;;;6.07;3.22;;;12.60;99.90;;;;;;5115210;27;20047;-62
2023/07/18 03:30:22;;;;;;;9.07;3.80;;;12.60;99.90;;;;;;5142704;27;20077;-62
2023/07/18 03:32:49;;;;;;;9.48;3.38;;;12.70;99.90;;;;;;5123262;27;20215;-62
2023/07/18 03:35:15;;;;;;;6.97;3.50;;;12.70;99.90;;;;;;5141128;27;20054;-62
2023/07/18 03:37:40;;;;;;;7.40;3.22;;;12.70;99.90;;;;;;5149784;27;20039;-62
2023/07/18 03:40:06;;;;;;;10.23;4.00;;;12.70;99.90;;;;;;5144929;27;20401;-62
2023/07/18 03:42:33;;;;;;;7.85;3.67;;;12.70;99.90;;;;;;5121232;27;20496;-62
2023/07/18 03:44:58;;;;;;;6.53;3.30;;;12.70;99.90;;;;;;5127447;27;20511;-62
2023/07/18 03:47:24;;;;;;;7.13;3.42;;;12.70;99.90;;;;;;5115572;27;20036;-62
2023/07/18 03:49:50;;;;;;;10.70;3.80;;;12.70;99.90;;;;;;5134479;27;20074;-62
2023/07/18 03:52:16;;;;;;;8.75;3.35;;;12.70;99.90;;;;;;5138780;27;20093;-62
2023/07/18 03:54:43;;;;;;;6.32;3.40;;;12.70;99.90;;;;;;5129293;27;20035;-62
2023/07/18 03:57:08;;;;;;;6.85;3.60;;;12.70;99.90;;;;;;5116471;27;20108;-62
2023/07/18 03:59:34;;;;;;;8.30;3.35;;;12.70;99.90;;;;;;5116007;27;20031;-63
2023/07/18 04:02:00;;;;;;;8.50;3.35;;;12.80;99.90;;;;;;5118616;27;20079;-62
2023/07/18 04:04:26;;;;;;;7.45;3.70;;;12.80;99.90;;;;;;5129275;27;20037;-62
2023/07/18 04:06:52;;;;;;;7.22;3.72;;;12.80;99.90;;;;;;5142053;27;20039;-62
2023/07/18 04:09:18;;;;;;;6.55;3.47;;;12.80;99.90;;;;;;5120395;27;20095;-62
2023/07/18 04:11:46;;;;;;;7.43;3.40;;;12.80;99.90;;;;;;5125819;27;20094;-62
2023/07/18 04:14:12;;;;;;;6.63;3.40;;;12.80;99.90;;;;;;5091852;27;20054;-62
2023/07/18 04:16:38;;;;;;;9.45;3.70;;;12.80;99.90;;;;;;5123255;27;20046;-62
2023/07/18 04:19:04;;;;;;;7.95;3.17;;;12.80;99.90;;;;;;5118011;27;20062;-62
2023/07/18 04:21:30;;;;;;;7.40;3.65;;;12.90;99.90;;;;;;5096961;27;20035;-62
2023/07/18 04:23:56;;;;;;;5.97;3.60;;;12.90;99.90;;;;;;5120680;27;20539;-62
2023/07/18 04:26:22;;;;;;;6.80;3.50;;;12.90;99.90;;;;;;5121860;27;21072;-62
2023/07/18 04:28:48;;;;;;;8.68;3.85;;;13.00;99.90;;;;;;5127509;27;20197;-62
2023/07/18 04:31:14;;;;;;;12.60;3.95;;;13.00;99.90;;;;;;5146050;27;20038;-63
2023/07/18 04:33:40;;;;;;;8.52;3.38;;;13.10;99.90;;;;;;5128813;27;20106;-62
2023/07/18 04:36:07;;;;;;;9.32;3.63;;;13.10;99.90;;;;;;5131735;27;20051;-62
2023/07/18 04:38:34;;;;;;;7.95;3.45;;;13.20;99.90;;;;;;5113577;27;20043;-61
2023/07/18 04:41:01;;;;;;;6.90;3.28;;;13.20;99.90;;;;;;5139547;27;20079;-62
2023/07/18 04:43:27;;;;;;;7.80;3.45;;;13.30;99.90;;;;;;5116366;27;20038;-63
2023/07/18 04:45:52;;;;;;;8.18;3.53;;;13.30;99.90;;;;;;5118329;27;20046;-62
2023/07/18 04:48:19;;;;;;;9.40;3.50;;;13.30;99.90;;;;;;5127658;27;20503;-62
2023/07/18 04:50:46;;;;;;;6.30;3.42;;;13.30;99.90;;;;;;5117340;27;20057;-62
2023/07/18 04:53:12;;;;;;;8.68;3.60;;;13.40;99.90;;;;;;5126436;27;20051;-62
2023/07/18 04:55:39;;;;;;;7.15;3.10;;;13.40;99.90;;;;;;5121391;27;20043;-62
2023/07/18 04:58:06;;;;;;;6.35;2.97;;;13.50;99.90;;;;;;5134508;27;20478;-63
2023/07/18 05:00:32;;;;;;;8.50;3.35;;;13.50;99.90;;;;;;5117987;27;20055;-62
2023/07/18 05:02:59;;;;;;;8.60;3.20;;;13.60;99.90;;;;;;5111592;27;20142;-62
2023/07/18 05:05:28;;;;;;;8.68;3.53;;;13.70;99.90;;;;;;5131397;27;20092;-62
2023/07/18 05:07:55;;;;;;;8.30;3.88;;;13.80;99.90;;;;;;5113214;28;20126;-65
2023/07/18 05:10:22;;;;;;;7.53;3.10;;;13.90;99.90;;;;;;5113008;27;20070;-63
2023/07/18 05:12:49;;;;;;;7.57;3.20;;;14.00;99.90;;;;;;5113120;27;20031;-63
2023/07/18 05:15:14;;;;;;;8.10;3.13;;;14.00;99.90;;;;;;5146964;27;20035;-62
2023/07/18 05:17:40;;;;;;;9.85;3.22;;;14.10;99.90;;;;;;5152211;27;20119;-62
2023/07/18 05:20:06;;;;;;;10.82;3.15;;;14.10;99.90;;;;;;5138122;27;20465;-61
2023/07/18 05:22:32;;;;;;;9.73;2.95;;;14.10;99.90;;;;;;5112761;27;20055;-63
2023/07/18 05:24:59;;;;;;;10.63;3.20;;;14.20;99.90;;;;;;5113247;28;20035;-63
2023/07/18 05:27:24;;;;;;;11.73;3.50;;;14.10;99.90;;;;;;5112917;27;20070;-63
2023/07/18 05:29:50;;;;;;;10.95;2.97;;;14.10;99.90;;;;;;5112865;27;20126;-63
2023/07/18 05:32:15;;;;;;;10.20;3.60;;;14.20;99.90;;;;;;5131250;27;20109;-63
2023/07/18 05:34:41;;;;;;;7.32;3.03;;;14.20;99.90;;;;;;5133941;27;20038;-63
2023/07/18 05:37:07;;;;;;;9.27;3.20;;;14.30;99.90;;;;;;5133140;27;20046;-63
2023/07/18 05:39:32;;;;;;;11.45;3.05;;;14.30;99.90;;;;;;5123482;27;20050;-62
2023/07/18 05:41:58;;;;;;;13.45;3.72;;;14.30;99.90;;;;;;5113965;28;20042;-63
2023/07/18 05:44:24;;;;;;;8.15;2.92;;;14.30;99.90;;;;;;5112603;27;20050;-62
2023/07/18 05:46:49;;;;;;;7.60;3.15;;;14.40;99.90;;;;;;5115063;27;20035;-62
2023/07/18 05:49:15;;;;;;;12.38;3.00;;;14.50;99.90;;;;;;5116866;27;20035;-63
2023/07/18 05:51:40;;;;;;;6.88;2.88;;;14.60;99.90;;;;;;5118961;27;20047;-62
2023/07/18 05:54:06;;;;;;;7.40;2.70;;;14.60;99.90;;;;;;5137325;27;20488;-63
2023/07/18 05:56:32;;;;;;;9.10;2.97;;;14.60;99.90;;;;;;5156506;27;20492;-62
2023/07/18 05:58:59;;;;;;;9.73;3.45;;;14.70;99.90;;;;;;5143014;27;20366;-63
2023/07/18 06:01:25;;;;;;;12.52;2.90;;;14.80;99.90;;;;;;5116909;27;20454;-63
2023/07/18 06:03:51;;;;;;;8.82;2.90;;;14.90;99.90;;;;;;5118022;27;20050;-63
2023/07/18 06:06:16;;;;;;;6.78;2.50;;;14.90;99.90;;;;;;5119111;27;20054;-63
2023/07/18 06:08:42;;;;;;;7.93;2.92;;;15.00;99.90;;;;;;5136847;27;20035;-62
2023/07/18 06:11:08;;;;;;;8.13;2.90;;;15.10;99.90;;;;;;5137347;27;20034;-64
2023/07/18 06:13:33;;;;;;;9.65;2.95;;;15.10;99.90;;;;;;5136843;27;20061;-62
2023/07/18 06:15:59;;;;;;;7.85;2.88;;;15.20;99.90;;;;;;5136858;27;20042;-62
2023/07/18 06:18:25;;;;;;;9.55;2.95;;;15.20;99.90;;;;;;5137075;27;20405;-63
2023/07/18 06:20:50;;;;;;;7.50;2.40;;;15.30;99.90;;;;;;5136737;27;20042;-63
2023/07/18 06:23:16;;;;;;;6.05;2.78;;;15.40;99.90;;;;;;5126314;27;20046;-62
2023/07/18 06:25:42;;;;;;;8.75;2.95;;;15.50;99.90;;;;;;5133446;27;20162;-62
2023/07/18 06:28:07;;;;;;;8.48;2.63;;;15.60;99.90;;;;;;5116426;27;20130;-63
2023/07/18 06:30:33;;;;;;;7.15;2.50;;;15.60;99.90;;;;;;5116225;27;20046;-63
2023/07/18 06:32:59;;;;;;;6.38;2.90;;;15.70;99.90;;;;;;5115684;27;20035;-63
2023/07/18 06:35:25;;;;;;;9.73;2.58;;;15.70;99.90;;;;;;5115851;27;20031;-62
2023/07/18 06:37:51;;;;;;;8.48;2.85;;;15.80;99.90;;;;;;5115770;27;20520;-63
2023/07/18 06:40:17;;;;;;;8.48;3.38;;;16.00;99.90;;;;;;5119091;27;20050;-63
2023/07/18 06:42:43;;;;;;;6.35;3.00;;;16.10;99.90;;;;;;5115996;27;20118;-62
2023/07/18 06:45:09;;;;;;;6.32;3.00;;;16.10;99.90;;;;;;5115684;27;20188;-63
2023/07/18 06:47:35;;;;;;;7.75;2.97;;;16.20;99.90;;;;;;5123795;27;20157;-62
2023/07/18 06:50:01;;;;;;;8.73;3.40;;;16.30;99.90;;;;;;5136291;27;20148;-62
2023/07/18 06:52:28;;;;;;;11.20;2.97;;;16.60;99.90;;;;;;5150445;27;20050;-62
2023/07/18 06:54:57;;;;;;;10.48;2.90;;;16.80;99.90;;;;;;5136071;27;20171;-62
2023/07/18 06:57:22;;;;;;;8.65;2.85;;;16.90;99.90;;;;;;5121716;27;20120;-63
2023/07/18 06:59:48;;;;;;;10.38;3.00;;;17.10;99.90;;;;;;5133774;27;20489;-63
2023/07/18 07:02:13;;;;;;;14.75;3.33;;;17.30;99.90;;;;;;5121243;27;20042;-62
2023/07/18 07:04:39;;;;;;;9.68;2.88;;;17.40;99.90;;;;;;5115274;27;20114;-62
2023/07/18 07:07:06;;;;;;;7.82;2.92;;;17.60;99.90;;;;;;5115520;27;20138;-63
2023/07/18 07:09:33;;;;;;;7.32;2.55;;;17.90;99.90;;;;;;5133558;27;20035;-62
2023/07/18 07:11:59;;;;;;;10.65;2.60;;;18.10;99.90;;;;;;5135776;27;20122;-62
2023/07/18 07:14:25;;;;;;;7.03;2.72;;;18.20;99.90;;;;;;5127063;27;20039;-63
2023/07/18 07:16:50;;;;;;;8.57;2.72;;;18.20;99.90;;;;;;5107219;27;20047;-63
2023/07/18 07:19:17;;;;;;;10.93;3.17;;;18.10;99.90;;;;;;5128675;27;20047;-63
2023/07/18 07:21:43;;;;;;;9.25;2.92;;;18.20;99.90;;;;;;5114899;27;20043;-63
2023/07/18 07:24:08;;;;;;;10.65;2.90;;;18.20;99.90;;;;;;5115054;27;20083;-63
2023/07/18 07:26:37;;;;;;;9.98;2.92;;;18.30;99.90;;;;;;5114730;27;20482;-63
2023/07/18 07:29:04;;;;;;;11.35;3.05;;;18.40;99.90;;;;;;5130650;27;20049;-64
2023/07/18 07:31:33;;;;;;;8.07;2.70;;;18.60;99.90;;;;;;5115143;27;20828;-64
2023/07/18 07:33:59;;;;;;;9.63;2.92;;;18.70;99.90;;;;;;5114780;27;20035;-63
2023/07/18 07:36:25;;;;;;;12.43;3.13;;;18.80;99.90;;;;;;5114790;27;20088;-63
2023/07/18 07:38:50;;;;;;;8.88;3.17;;;19.00;99.90;;;;;;5114538;27;20481;-63
2023/07/18 07:41:16;;;;;;;7.00;2.95;;;19.10;99.90;;;;;;5115626;27;20482;-63
2023/07/18 07:43:42;;;;;;;11.68;4.15;;;19.30;99.90;;;;;;5114885;27;20046;-62
2023/07/18 07:46:07;;;;;;;10.95;2.88;;;19.30;99.90;;;;;;5114603;27;20039;-63
2023/07/18 07:48:33;;;;;;;9.68;3.00;;;19.40;99.90;;;;;;5106311;27;20043;-63
2023/07/18 07:51:00;;;;;;;11.82;3.70;;;19.40;99.90;;;;;;5101569;27;20047;-63
2023/07/18 07:53:26;;;;;;;9.43;2.95;;;19.50;99.90;;;;;;5114392;27;20145;-62
2023/07/18 07:55:52;;;;;;;11.77;3.97;;;19.70;99.90;;;;;;5114608;27;20480;-63
2023/07/18 07:58:17;;;;;;;10.57;3.63;;;19.80;99.90;;;;;;5134601;27;20167;-62
2023/07/18 08:00:43;;;;;;;11.52;3.10;;;20.00;99.90;;;;;;5116682;27;20130;-63
2023/07/18 08:03:09;;;;;;;11.10;2.88;;;19.90;99.90;;;;;;5119037;27;20031;-63
2023/07/18 08:05:35;;;;;;;7.18;3.38;;;19.90;99.90;;;;;;5134727;27;20506;-63
2023/07/18 08:08:01;;;;;;;12.93;4.80;;;20.10;99.90;;;;;;5144050;27;20038;-62
2023/07/18 08:10:27;;;;;;;8.45;3.20;;;20.40;99.90;;;;;;5113897;27;20039;-62
2023/07/18 08:12:52;;;;;;;8.30;3.45;;;20.70;99.90;;;;;;5113965;27;20039;-63
2023/07/18 08:15:19;;;;;;;12.02;3.90;;;21.00;99.90;;;;;;5113880;27;20039;-62
2023/07/18 08:17:45;;;;;;;9.23;3.60;;;21.10;99.90;;;;;;5114082;27;20494;-63
2023/07/18 08:20:12;;;;;;;12.40;3.50;;;20.70;99.90;;;;;;5124530;27;20057;-62
2023/07/18 08:22:39;;;;;;;11.20;3.08;;;20.60;99.90;;;;;;5153117;27;20397;-63
2023/07/18 08:25:04;;;;;;;11.50;3.30;;;20.70;99.90;;;;;;5127042;27;20063;-62
2023/07/18 08:27:30;;;;;;;11.75;3.50;;;20.90;99.90;;;;;;5152934;27;20501;-63
2023/07/18 08:29:56;;;;;;;12.60;3.28;;;20.90;99.90;;;;;;5127489;27;20079;-63
2023/07/18 08:32:22;;;;;;;9.25;3.28;;;20.70;99.90;;;;;;5134276;27;20037;-63
2023/07/18 08:34:48;;;;;;;12.05;3.50;;;20.60;99.90;;;;;;5134049;27;20489;-62
2023/07/18 08:37:13;;;;;;;11.10;3.17;;;20.40;99.90;;;;;;5134076;27;20074;-62
2023/07/18 08:39:39;;;;;;;12.52;3.25;;;20.40;99.90;;;;;;5134559;27;20437;-63
2023/07/18 08:42:06;;;;;;;11.20;3.28;;;20.10;99.90;;;;;;5132675;27;20056;-63
2023/07/18 08:44:34;;;;;;;9.00;3.10;;;20.20;99.90;;;;;;5134290;27;20043;-63
2023/07/18 08:47:02;;;;;;;8.38;3.30;;;20.00;99.90;;;;;;5117789;27;20047;-63
2023/07/18 08:49:30;;;;;;;9.63;2.97;;;20.20;99.90;;;;;;5113446;27;20043;-63
2023/07/18 08:51:56;;;;;;;10.95;3.50;;;20.30;99.90;;;;;;5113030;27;20060;-62
2023/07/18 08:54:22;;;;;;;7.63;2.60;;;20.50;99.90;;;;;;5130820;27;20035;-61
2023/07/18 08:56:48;;;;;;;9.10;2.72;;;20.50;99.90;;;;;;5133952;27;20042;-64
2023/07/18 08:59:14;;;;;;;9.27;2.72;;;20.60;99.90;;;;;;5133743;27;20042;-63
2023/07/18 09:01:50;;;;;;;10.98;2.40;;;20.70;99.90;;;;;;5118457;27;20637;-63
2023/07/18 09:04:17;;;;;;;9.25;2.35;;;20.90;99.90;;;;;;5114137;27;20129;-62
2023/07/18 09:06:58;;;;;;;7.80;1.85;;;21.10;99.90;;;;;;5133925;27;20141;-63
2023/07/18 09:09:24;;;;;;;14.15;3.00;;;21.10;99.90;;;;;;5133676;27;20031;-63
2023/07/18 09:11:55;;;;;;;10.43;2.08;;;21.10;99.90;;;;;;5152296;27;20122;-63
2023/07/18 09:14:29;;;;;;;6.40;1.70;;;21.10;99.90;;;;;;5152168;27;20038;-64
2023/07/18 09:16:55;;;;;;;11.57;2.00;;;21.10;99.90;;;;;;5133667;27;20069;-63
2023/07/18 09:19:41;;;;;;;5.72;2.00;;;21.20;99.90;;;;;;5116666;27;20042;-63
2023/07/18 09:22:18;;;;;;;5.78;1.48;;;21.30;99.90;;;;;;5132694;27;20130;-62
2023/07/18 09:24:46;;;;;;;7.45;1.33;;;21.40;99.90;;;;;;5133547;27;20070;-63
2023/07/18 09:27:19;;;;;;;5.75;1.58;;;21.50;99.90;;;;;;5133287;27;20129;-63
2023/07/18 09:29:46;;;;;;;6.00;1.42;;;21.80;99.90;;;;;;5133440;27;20047;-62
2023/07/18 09:32:19;;;;;;;4.35;1.25;;;21.90;99.90;;;;;;5118582;27;20055;-63
2023/07/18 09:34:56;;;;;;;5.53;1.48;;;22.00;99.90;;;;;;5131500;27;20394;-62
2023/07/18 09:37:21;;;;;;;6.13;1.20;;;22.10;99.90;;;;;;5124546;27;20492;-63
2023/07/18 09:39:49;;;;;;;6.78;1.52;;;22.10;99.90;;;;;;5133446;27;20050;-63
2023/07/18 09:42:17;;;;;;;3.78;1.05;;;22.20;99.90;;;;;;5132525;27;20043;-64
2023/07/18 09:44:48;;;;;;;5.85;1.30;;;22.20;99.90;;;;;;5133146;27;20034;-63
2023/07/18 09:47:14;;;;;;;12.70;3.10;;;22.20;99.90;;;;;;5151835;27;20095;-63
2023/07/18 09:49:42;;;;;;;4.80;1.35;;;22.30;99.90;;;;;;5151806;27;20083;-63
2023/07/18 09:52:09;;;;;;;6.05;1.95;;;22.20;99.80;;;;;;5132946;27;20047;-62
2023/07/18 09:54:35;;;;;;;7.10;1.27;;;22.30;99.70;;;;;;5122959;27;20050;-63
2023/07/18 09:57:05;;;;;;;5.22;1.35;;;22.50;99.90;;;;;;5112713;28;20125;-63
2023/07/18 09:59:37;;;;;;;5.97;1.38;;;22.50;99.70;;;;;;5112781;27;20054;-62
2023/07/18 10:02:06;;;;;;;5.97;1.70;;;22.50;99.90;;;;;;5129315;27;20043;-63
2023/07/18 10:04:34;;;;;;;5.65;1.33;;;22.50;99.90;;;;;;5133304;27;20053;-62
2023/07/18 10:07:02;;;;;;;4.70;1.25;;;22.60;99.90;;;;;;5132909;27;20074;-62
2023/07/18 10:09:28;;;;;;;5.78;1.27;;;23.00;99.90;;;;;;5151517;27;20035;-63
2023/07/18 10:12:03;;;;;;;4.88;1.20;;;23.00;98.90;;;;;;5115614;27;20125;-63
2023/07/18 10:14:56;;;;;;;5.75;1.30;;;23.10;98.30;;;;;;5132817;27;20113;-63
2023/07/18 10:17:31;;;;;;;3.47;1.10;;;23.30;96.20;;;;;;5117130;27;20583;-63
2023/07/18 10:19:57;;;;;;;9.77;1.58;;;23.60;95.70;;;;;;5114872;27;20054;-63
2023/07/18 10:22:27;;;;;;;4.70;0.90;;;23.90;97.20;;;;;;5112406;27;20031;-64
2023/07/18 10:24:57;;;;;;;3.97;1.10;;;24.10;95.20;;;;;;5118317;27;20035;-62
2023/07/18 10:27:26;;;;;;;4.82;1.10;;;24.00;94.40;;;;;;5132789;27;20529;-63
2023/07/18 10:30:22;;;;;;;4.38;1.38;;;24.00;94.50;;;;;;5130142;27;20046;-62
2023/07/18 10:32:51;;;;;;;4.63;1.20;;;24.00;94.70;;;;;;5032639;28;20057;-63
2023/07/18 10:35:18;;;;;;;2.53;0.95;;;24.10;94.60;;;;;;5050994;28;20033;-63
2023/07/18 10:37:52;;;;;;;5.90;0.93;;;24.20;94.20;;;;;;5067274;28;20123;-65
2023/07/18 10:40:35;;;;;;;2.55;1.00;;;24.40;94.80;;;;;;5057210;28;20131;-63
2023/07/18 10:43:02;;;;;;;5.85;1.15;;;24.30;94.10;;;;;;5039801;28;20049;-63
2023/07/18 10:45:28;;;;;;;2.13;0.90;;;24.60;94.60;;;;;;5060329;28;20066;-62
2023/07/18 10:47:54;;;;;;;2.92;1.15;;;24.70;93.90;;;;;;5053142;28;20123;-62
2023/07/18 10:50:19;;;;;;;2.00;0.90;;;24.60;92.40;;;;;;5053693;28;20205;-62
2023/07/18 10:52:45;;;;;;;2.83;0.95;;;24.80;92.10;;;;;;5054071;28;20056;-63
2023/07/18 10:55:12;;;;;;;3.55;1.00;;;24.70;92.00;;;;;;5053642;28;20120;-62
2023/07/18 10:57:38;;;;;;;2.03;0.95;;;24.80;91.20;;;;;;5053838;28;20081;-62
2023/07/18 11:00:06;;;;;;;5.03;1.45;;;24.60;91.50;;;;;;5070358;28;20033;-63
2023/07/18 11:02:49;;;;;;;2.05;1.10;;;24.60;91.70;;;;;;5053779;28;20527;-62
2023/07/18 11:05:15;;;;;;;4.18;1.20;;;24.50;90.20;;;;;;5053559;28;20051;-62
2023/07/18 11:07:43;;;;;;;3.10;0.90;;;24.40;90.90;;;;;;5053353;28;20045;-63
2023/07/18 11:10:10;;;;;;;5.70;1.02;;;24.40;91.10;;;;;;5134160;27;20047;-62
2023/07/18 11:12:36;;;;;;;3.83;1.20;;;24.40;91.30;;;;;;5115342;27;20039;-62
2023/07/18 11:15:09;;;;;;;1.77;0.85;;;24.50;91.60;;;;;;5115302;27;20035;-62
2023/07/18 11:17:35;;;;;;;3.95;0.90;;;24.60;90.80;;;;;;5129224;27;20038;-62
2023/07/18 11:20:03;;;;;;;3.45;0.90;;;24.90;90.90;;;;;;5124669;27;20035;-62
2023/07/18 11:22:30;;;;;;;4.13;1.00;;;25.00;88.10;;;;;;5133646;27;20050;-62
2023/07/18 11:24:56;;;;;;;2.42;1.02;;;25.00;89.30;;;;;;5133511;27;20035;-62
2023/07/18 11:27:23;;;;;;;1.30;0.88;;;25.00;89.00;;;;;;5115100;27;20489;-63
2023/07/18 11:30:03;;;;;;;3.47;0.98;;;24.80;88.40;;;;;;5114843;27;20075;-63
2023/07/18 11:32:39;;;;;;;2.22;0.90;;;24.90;89.10;;;;;;5131802;27;20043;-62
2023/07/18 11:35:18;;;;;;;3.80;1.10;;;25.00;89.30;;;;;;5117559;27;20045;-62
2023/07/18 11:37:46;;;;;;;6.35;1.30;;;25.20;88.90;;;;;;5114918;27;20382;-64
2023/07/18 11:40:21;;;;;;;5.13;1.15;;;25.30;89.60;;;;;;5134513;27;20039;-62
2023/07/18 11:42:48;;;;;;;2.95;0.90;;;25.00;88.10;;;;;;5133054;27;20051;-62
2023/07/18 11:45:22;;;;;;;2.67;0.73;;;25.10;88.10;;;;;;5113707;27;20107;-62
2023/07/18 11:47:53;;;;;;;4.07;1.00;;;25.40;88.80;;;;;;5114394;27;20386;-62
2023/07/18 11:50:19;;;;;;;3.00;0.90;;;25.20;87.80;;;;;;5114956;27;20043;-63
2023/07/18 11:52:47;;;;;;;2.33;1.13;;;25.20;87.80;;;;;;5128678;27;20073;-62
2023/07/18 11:55:17;;;;;;;3.83;1.08;;;24.70;86.00;;;;;;5134967;27;20494;-63
2023/07/18 11:57:43;;;;;;;4.88;1.25;;;24.40;88.30;;;;;;5153342;27;20035;-63
2023/07/18 12:00:13;;;;;;;6.18;1.10;;;24.20;88.60;;;;;;5134736;27;20030;-62
2023/07/18 12:02:39;;;;;;;2.65;0.90;;;24.00;87.60;;;;;;5117284;27;20038;-61
2023/07/18 12:05:06;;;;;;;5.60;1.73;;;24.20;89.00;;;;;;5134718;27;20110;-63
2023/07/18 12:07:32;;;;;;;4.50;1.10;;;24.20;90.20;;;;;;5141322;27;20394;-63
2023/07/18 12:09:58;;;;;;;3.35;1.00;;;24.30;89.80;;;;;;5149498;27;20043;-63
2023/07/18 12:12:24;;;;;;;4.60;1.40;;;24.50;89.90;;;;;;5153787;27;20030;-63
2023/07/18 12:14:53;;;;;;;4.95;1.40;;;24.50;89.70;;;;;;5117011;27;20378;-63
2023/07/18 12:17:19;;;;;;;2.90;1.00;;;24.50;89.80;;;;;;5143494;27;20054;-63
2023/07/18 12:19:45;;;;;;;2.70;0.85;;;24.70;90.60;;;;;;5113913;27;20046;-63
2023/07/18 12:22:11;;;;;;;2.53;0.70;;;24.90;90.40;;;;;;5122282;27;20481;-63
2023/07/18 12:24:37;;;;;;;3.05;1.10;;;25.10;89.00;;;;;;5134341;27;20047;-62
2023/07/18 12:27:04;;;;;;;6.75;1.08;;;25.20;87.80;;;;;;5122816;27;20054;-63
2023/07/18 12:29:31;;;;;;;3.47;0.90;;;25.00;87.00;;;;;;5114989;27;20418;-63
2023/07/18 12:31:56;;;;;;;5.25;1.80;;;25.00;88.50;;;;;;5115525;27;20039;-65
2023/07/18 12:34:22;;;;;;;3.90;1.02;;;24.80;88.50;;;;;;5133091;27;20035;-62
2023/07/18 12:36:48;;;;;;;2.50;0.82;;;24.60;88.10;;;;;;5134210;27;20400;-64
2023/07/18 12:39:15;;;;;;;1.95;0.85;;;24.30;88.00;;;;;;5134105;27;20042;-63
2023/07/18 12:41:42;;;;;;;3.60;0.98;;;24.10;88.20;;;;;;5139232;27;20508;-63
2023/07/18 12:44:08;;;;;;;4.00;1.10;;;23.80;90.00;;;;;;5113487;27;20044;-63